Time;durP1;ratioP1;P1;durP2;ratioP2;P2;SDS_P1;SDS_P2;PMS_P1;PMS_P2;Temp;Humidity;BMP_temperature;BMP_pressure;BME280_temperature;BME280_humidity;BME280_pressure;Samples;Min_cycle;Max_cycle;Signal;HPM_P1;HPM_P2
2021/12/29 00:02:14;;;;;;;6.10;4.20;;;;;;;;;;5093305;28;20428;-55
2021/12/29 00:04:41;;;;;;;6.20;4.37;;;;;;;;;;5093198;28;20894;-57
2021/12/29 00:07:10;;;;;;;8.23;4.50;;;;;;;;;;5092950;28;20410;-54
2021/12/29 00:09:37;;;;;;;5.07;4.53;;;;;;;;;;5093191;28;20457;-57
2021/12/29 00:12:03;;;;;;;5.60;4.30;;;;;;;;;;5093170;28;20410;-56
2021/12/29 00:14:29;;;;;;;6.53;4.10;;;;;;;;;;5092939;28;20408;-57
2021/12/29 00:16:58;;;;;;;6.57;4.40;;;;;;;;;;5092935;28;20425;-56
2021/12/29 00:19:24;;;;;;;6.07;4.67;;;;;;;;;;5092562;28;20983;-55
2021/12/29 00:21:50;;;;;;;15.33;5.30;;;;;;;;;;5092610;28;20914;-54
2021/12/29 00:24:16;;;;;;;5.03;4.30;;;;;;;;;;5092528;28;20406;-55
2021/12/29 00:26:42;;;;;;;4.80;4.40;;;;;;;;;;5092037;28;20962;-55
2021/12/29 00:29:08;;;;;;;6.83;4.50;;;;;;;;;;5092104;28;20413;-56
2021/12/29 00:31:34;;;;;;;5.90;4.57;;;;;;;;;;5091806;28;20446;-56
2021/12/29 00:34:00;;;;;;;13.27;5.13;;;;;;;;;;5092047;28;20427;-55
2021/12/29 00:36:26;;;;;;;6.53;4.80;;;;;;;;;;5092279;28;20414;-57
2021/12/29 00:38:53;;;;;;;12.83;4.80;;;;;;;;;;5092540;28;20402;-54
2021/12/29 00:41:19;;;;;;;7.20;4.60;;;;;;;;;;5092492;28;20425;-55
2021/12/29 00:43:45;;;;;;;6.33;4.63;;;;;;;;;;5092253;28;20402;-57
2021/12/29 00:46:13;;;;;;;9.40;4.67;;;;;;;;;;5090926;28;20821;-60
2021/12/29 00:48:42;;;;;;;12.47;4.63;;;;;;;;;;5092338;28;20406;-59
2021/12/29 00:51:09;;;;;;;9.57;4.60;;;;;;;;;;5091274;28;20473;-61
2021/12/29 00:53:35;;;;;;;13.80;4.93;;;;;;;;;;5092341;28;20422;-59
2021/12/29 00:56:01;;;;;;;7.83;4.47;;;;;;;;;;5092244;28;20441;-58
2021/12/29 00:58:29;;;;;;;6.50;4.33;;;;;;;;;;5092362;28;20409;-56
2021/12/29 01:00:55;;;;;;;10.17;4.97;;;;;;;;;;5092239;28;20937;-57
2021/12/29 01:03:21;;;;;;;9.53;4.53;;;;;;;;;;5092272;28;20925;-59
2021/12/29 01:05:47;;;;;;;10.47;4.60;;;;;;;;;;5092034;28;20452;-56
2021/12/29 01:08:14;;;;;;;8.13;4.80;;;;;;;;;;5091948;28;20402;-56
2021/12/29 01:10:41;;;;;;;7.23;4.67;;;;;;;;;;5091979;28;20479;-58
2021/12/29 01:13:09;;;;;;;6.63;4.43;;;;;;;;;;5092126;28;20406;-60
2021/12/29 01:15:47;;;;;;;5.50;4.50;;;;;;;;;;5091871;28;20882;-60
2021/12/29 01:18:13;;;;;;;7.90;4.47;;;;;;;;;;5090619;28;20417;-59
2021/12/29 01:20:39;;;;;;;7.30;4.50;;;;;;;;;;5091829;28;20465;-59
2021/12/29 01:23:05;;;;;;;9.90;4.60;;;;;;;;;;5091844;28;20406;-65
2021/12/29 01:25:31;;;;;;;9.10;5.00;;;;;;;;;;5091803;28;20402;-61
2021/12/29 01:27:58;;;;;;;7.40;4.90;;;;;;;;;;5091708;28;20921;-60
2021/12/29 01:30:24;;;;;;;6.83;4.37;;;;;;;;;;5091849;28;20992;-61
2021/12/29 01:32:50;;;;;;;11.60;6.00;;;;;;;;;;5091771;28;20921;-56
2021/12/29 01:35:16;;;;;;;9.23;5.53;;;;;;;;;;5091578;28;20421;-59
2021/12/29 01:37:43;;;;;;;7.47;5.00;;;;;;;;;;5091681;28;20414;-57
2021/12/29 01:40:11;;;;;;;5.57;4.50;;;;;;;;;;5091725;28;20417;-57
2021/12/29 01:42:37;;;;;;;10.80;5.17;;;;;;;;;;5091732;28;20478;-59
2021/12/29 01:45:04;;;;;;;7.40;4.63;;;;;;;;;;5094856;28;20421;-67
2021/12/29 01:47:31;;;;;;;7.80;4.80;;;;;;;;;;5095990;28;20437;-68
2021/12/29 01:49:59;;;;;;;9.60;5.27;;;;;;;;;;5095639;28;20468;-55
2021/12/29 01:52:29;;;;;;;12.53;4.90;;;;;;;;;;5095972;28;20405;-62
2021/12/29 01:54:55;;;;;;;9.37;5.67;;;;;;;;;;5095908;28;20414;-62
2021/12/29 01:57:21;;;;;;;10.90;5.00;;;;;;;;;;5095605;28;20501;-59
2021/12/29 01:59:47;;;;;;;9.20;5.17;;;;;;;;;;5094974;28;20417;-62
2021/12/29 02:02:14;;;;;;;4.80;4.40;;;;;;;;;;5095146;28;20421;-65
2021/12/29 02:04:44;;;;;;;6.40;4.80;;;;;;;;;;5095304;28;20402;-59
2021/12/29 02:07:10;;;;;;;8.10;4.83;;;;;;;;;;5094890;28;20500;-59
2021/12/29 02:09:37;;;;;;;9.33;4.90;;;;;;;;;;5095094;28;20503;-65
2021/12/29 02:12:04;;;;;;;5.10;4.10;;;;;;;;;;5095262;28;20424;-60
2021/12/29 02:14:30;;;;;;;7.30;4.30;;;;;;;;;;5094956;28;20402;-65
2021/12/29 02:16:56;;;;;;;5.57;3.83;;;;;;;;;;5094741;28;20414;-55
2021/12/29 02:19:25;;;;;;;6.23;4.30;;;;;;;;;;5094709;28;20453;-61
2021/12/29 02:21:57;;;;;;;8.80;4.30;;;;;;;;;;5093485;28;20424;-66
2021/12/29 02:24:35;;;;;;;6.50;4.20;;;;;;;;;;5095183;28;20409;-65
2021/12/29 02:27:02;;;;;;;6.33;4.13;;;;;;;;;;5094558;28;20432;-65
2021/12/29 02:29:28;;;;;;;7.23;4.20;;;;;;;;;;5094603;28;20534;-62
2021/12/29 02:31:55;;;;;;;9.13;4.23;;;;;;;;;;5093517;28;20944;-64
2021/12/29 02:34:21;;;;;;;6.43;4.37;;;;;;;;;;5094788;28;20508;-66
2021/12/29 02:36:47;;;;;;;12.40;4.77;;;;;;;;;;5094518;28;20922;-57
2021/12/29 02:39:15;;;;;;;5.33;3.83;;;;;;;;;;5094576;28;20469;-59
2021/12/29 02:41:46;;;;;;;4.70;4.30;;;;;;;;;;5094219;28;20408;-60
2021/12/29 02:44:18;;;;;;;4.43;4.00;;;;;;;;;;5094470;28;20441;-58
2021/12/29 02:46:44;;;;;;;6.50;3.90;;;;;;;;;;5094550;28;20405;-57
2021/12/29 02:49:10;;;;;;;5.17;4.37;;;;;;;;;;5094483;28;20474;-62
2021/12/29 02:51:36;;;;;;;6.13;3.73;;;;;;;;;;5094291;28;20830;-54
2021/12/29 02:54:02;;;;;;;7.73;4.40;;;;;;;;;;5093943;28;20823;-56
2021/12/29 02:56:28;;;;;;;4.60;4.20;;;;;;;;;;5093818;28;20449;-59
2021/12/29 02:58:55;;;;;;;6.33;4.27;;;;;;;;;;5094225;28;20406;-60
2021/12/29 03:01:21;;;;;;;8.13;4.13;;;;;;;;;;5094529;28;20759;-59
2021/12/29 03:03:47;;;;;;;6.50;4.00;;;;;;;;;;5094032;28;20874;-57
2021/12/29 03:06:13;;;;;;;4.20;3.80;;;;;;;;;;5093953;28;20417;-60
2021/12/29 03:08:40;;;;;;;5.50;3.83;;;;;;;;;;5093989;28;20414;-57
2021/12/29 03:11:06;;;;;;;6.43;3.80;;;;;;;;;;5093794;28;20461;-64
2021/12/29 03:13:33;;;;;;;6.70;3.67;;;;;;;;;;5093803;28;20413;-60
2021/12/29 03:16:00;;;;;;;9.30;4.10;;;;;;;;;;5093761;28;20437;-60
2021/12/29 03:18:27;;;;;;;4.33;4.03;;;;;;;;;;5093692;28;20506;-55
2021/12/29 03:20:53;;;;;;;5.67;4.00;;;;;;;;;;5092634;28;20480;-55
2021/12/29 03:23:19;;;;;;;4.03;3.70;;;;;;;;;;5092505;28;20724;-55
2021/12/29 03:25:48;;;;;;;3.43;3.13;;;;;;;;;;5093788;28;20414;-56
2021/12/29 03:28:15;;;;;;;3.87;3.50;;;;;;;;;;5093728;28;20414;-54
2021/12/29 03:30:41;;;;;;;3.53;3.37;;;;;;;;;;5093380;28;20469;-55
2021/12/29 03:33:09;;;;;;;4.83;3.80;;;;;;;;;;5093703;28;20818;-54
2021/12/29 03:35:55;;;;;;;6.53;4.07;;;;;;;;;;5092057;28;20452;-54
2021/12/29 03:38:23;;;;;;;7.93;4.43;;;;;;;;;;5093321;28;20497;-55
2021/12/29 03:40:49;;;;;;;4.03;3.73;;;;;;;;;;5093528;28;20525;-54
2021/12/29 03:43:15;;;;;;;5.10;3.67;;;;;;;;;;5093212;28;20398;-53
2021/12/29 03:45:44;;;;;;;6.33;4.33;;;;;;;;;;5093216;28;20424;-55
2021/12/29 03:48:11;;;;;;;9.73;4.37;;;;;;;;;;5093457;28;20474;-56
2021/12/29 03:50:37;;;;;;;3.93;3.63;;;;;;;;;;5091807;28;20469;-55
2021/12/29 03:53:04;;;;;;;4.13;3.80;;;;;;;;;;5093187;28;20417;-59
2021/12/29 03:55:30;;;;;;;5.50;4.20;;;;;;;;;;5091706;28;20417;-60
2021/12/29 03:57:56;;;;;;;5.43;4.40;;;;;;;;;;5093426;28;20407;-61
2021/12/29 04:00:22;;;;;;;6.10;4.17;;;;;;;;;;5093131;28;20428;-58
2021/12/29 04:02:48;;;;;;;5.00;4.53;;;;;;;;;;5093001;28;20406;-63
2021/12/29 04:05:17;;;;;;;5.10;4.00;;;;;;;;;;5092973;28;20456;-63
2021/12/29 04:07:43;;;;;;;6.10;3.80;;;;;;;;;;5092045;28;20481;-64
2021/12/29 04:10:10;;;;;;;4.67;3.70;;;;;;;;;;5092813;28;20857;-61
2021/12/29 04:12:36;;;;;;;4.63;3.93;;;;;;;;;;5092735;28;20414;-62
2021/12/29 04:15:02;;;;;;;6.33;4.33;;;;;;;;;;5092852;28;20452;-64
2021/12/29 04:17:36;;;;;;;4.60;4.23;;;;;;;;;;5092617;28;20458;-64
2021/12/29 04:22:51;;;;;;;4.80;4.20;;;;;;;;;;5092743;28;20821;-59
2021/12/29 04:25:19;;;;;;;5.13;4.60;;;;;;;;;;5092575;28;20500;-61
2021/12/29 04:27:47;;;;;;;9.47;4.40;;;;;;;;;;5092461;28;20412;-56
2021/12/29 04:30:13;;;;;;;4.43;4.13;;;;;;;;;;5092343;28;20469;-62
2021/12/29 04:32:39;;;;;;;4.90;4.13;;;;;;;;;;5092309;28;20511;-59
2021/12/29 04:35:05;;;;;;;4.17;3.97;;;;;;;;;;5092242;28;20834;-57
2021/12/29 04:37:31;;;;;;;4.87;4.47;;;;;;;;;;5090973;28;20422;-57
2021/12/29 04:39:57;;;;;;;8.33;4.80;;;;;;;;;;5092312;28;20525;-59
2021/12/29 04:42:23;;;;;;;10.67;4.40;;;;;;;;;;5092156;28;20425;-57
2021/12/29 04:44:49;;;;;;;5.70;4.37;;;;;;;;;;5092182;28;20925;-62
2021/12/29 04:47:15;;;;;;;4.70;4.30;;;;;;;;;;5090830;28;20463;-58
2021/12/29 04:49:42;;;;;;;6.30;4.30;;;;;;;;;;5091962;28;20945;-62
2021/12/29 04:52:10;;;;;;;5.13;4.63;;;;;;;;;;5092368;28;20413;-59
2021/12/29 04:54:37;;;;;;;6.83;4.50;;;;;;;;;;5092156;28;20410;-59
2021/12/29 04:57:03;;;;;;;7.40;4.40;;;;;;;;;;5091980;28;20416;-62
2021/12/29 04:59:29;;;;;;;8.03;4.77;;;;;;;;;;5092074;28;20443;-61
2021/12/29 05:01:55;;;;;;;4.90;4.50;;;;;;;;;;5092121;28;20406;-58
2021/12/29 05:04:35;;;;;;;4.83;4.30;;;;;;;;;;5092117;28;20398;-63
2021/12/29 05:09:47;;;;;;;7.67;4.90;;;;;;;;;;5091986;28;20517;-63
2021/12/29 05:12:13;;;;;;;5.13;4.70;;;;;;;;;;5091819;28;20444;-63
2021/12/29 05:14:39;;;;;;;8.70;4.83;;;;;;;;;;5091845;28;20551;-57
2021/12/29 05:17:06;;;;;;;5.20;4.50;;;;;;;;;;5091825;28;20394;-60
2021/12/29 05:19:32;;;;;;;4.43;4.07;;;;;;;;;;5091440;28;20454;-56
2021/12/29 05:21:58;;;;;;;7.90;4.43;;;;;;;;;;5091865;28;20489;-56
2021/12/29 05:24:24;;;;;;;9.40;4.80;;;;;;;;;;5090679;28;20450;-58
2021/12/29 05:26:50;;;;;;;5.43;4.90;;;;;;;;;;5091911;28;20402;-59
2021/12/29 05:29:16;;;;;;;5.33;4.70;;;;;;;;;;5091483;28;20401;-57
2021/12/29 05:31:43;;;;;;;5.00;4.57;;;;;;;;;;5091455;28;20510;-58
2021/12/29 05:34:09;;;;;;;5.53;4.50;;;;;;;;;;5091879;28;20425;-55
2021/12/29 05:36:35;;;;;;;5.67;4.60;;;;;;;;;;5090143;28;20453;-58
2021/12/29 05:39:01;;;;;;;7.30;4.40;;;;;;;;;;5091503;28;20406;-58
2021/12/29 05:41:27;;;;;;;5.27;4.93;;;;;;;;;;5091505;28;20508;-56
2021/12/29 05:43:53;;;;;;;7.83;4.57;;;;;;;;;;5091632;28;20850;-57
2021/12/29 05:46:19;;;;;;;7.80;4.40;;;;;;;;;;5091532;28;20425;-56
2021/12/29 05:48:45;;;;;;;4.83;4.30;;;;;;;;;;5091669;28;20410;-55
2021/12/29 05:51:12;;;;;;;5.10;4.60;;;;;;;;;;5091644;28;20465;-59
2021/12/29 05:53:39;;;;;;;7.63;4.40;;;;;;;;;;5091537;28;20809;-54
2021/12/29 05:56:05;;;;;;;8.03;4.87;;;;;;;;;;5091572;28;20432;-57
2021/12/29 05:58:31;;;;;;;5.87;5.17;;;;;;;;;;5091781;28;20413;-59
2021/12/29 06:00:57;;;;;;;5.10;4.33;;;;;;;;;;5091307;28;20417;-61
2021/12/29 06:03:23;;;;;;;6.20;4.93;;;;;;;;;;5091485;28;20402;-60
2021/12/29 06:05:49;;;;;;;5.57;5.17;;;;;;;;;;5090208;28;20413;-57
2021/12/29 06:08:15;;;;;;;4.93;4.53;;;;;;;;;;5091296;28;20827;-53
2021/12/29 06:10:41;;;;;;;4.60;4.20;;;;;;;;;;5090935;28;20473;-56
2021/12/29 06:13:07;;;;;;;5.33;4.83;;;;;;;;;;5091092;28;20462;-56
2021/12/29 06:15:33;;;;;;;6.67;4.93;;;;;;;;;;5091336;28;20728;-59
2021/12/29 06:17:59;;;;;;;5.00;4.43;;;;;;;;;;5091598;28;20438;-57
2021/12/29 06:20:26;;;;;;;4.67;4.20;;;;;;;;;;5090800;28;20464;-57
2021/12/29 06:22:52;;;;;;;4.90;4.50;;;;;;;;;;5091269;28;20442;-56
2021/12/29 06:25:18;;;;;;;4.83;4.43;;;;;;;;;;5091286;28;20478;-57
2021/12/29 06:27:44;;;;;;;7.70;4.77;;;;;;;;;;5090942;28;20413;-58
2021/12/29 06:30:12;;;;;;;4.57;4.17;;;;;;;;;;5092582;28;20461;-54
2021/12/29 06:32:38;;;;;;;9.10;4.90;;;;;;;;;;5094604;28;20917;-55
2021/12/29 06:35:05;;;;;;;5.37;4.87;;;;;;;;;;5094602;28;20858;-60
2021/12/29 06:37:31;;;;;;;5.23;4.67;;;;;;;;;;5094526;28;20446;-61
2021/12/29 06:39:57;;;;;;;5.50;4.87;;;;;;;;;;5094417;28;20838;-57
2021/12/29 06:42:23;;;;;;;6.10;4.90;;;;;;;;;;5094344;28;20414;-58
2021/12/29 06:44:49;;;;;;;5.23;4.80;;;;;;;;;;5093134;28;20426;-65
2021/12/29 06:47:15;;;;;;;6.97;4.67;;;;;;;;;;5094367;28;20981;-64
2021/12/29 06:49:41;;;;;;;5.53;5.03;;;;;;;;;;5094114;28;20544;-58
2021/12/29 06:52:08;;;;;;;4.87;4.47;;;;;;;;;;5094420;28;20413;-56
2021/12/29 06:54:34;;;;;;;5.70;5.23;;;;;;;;;;5094434;28;20467;-60
2021/12/29 06:57:01;;;;;;;7.60;5.10;;;;;;;;;;5093654;28;20401;-62
2021/12/29 06:59:27;;;;;;;6.53;5.23;;;;;;;;;;5093381;28;20601;-55
2021/12/29 07:01:53;;;;;;;5.23;4.80;;;;;;;;;;5093565;28;20441;-56
2021/12/29 07:04:19;;;;;;;5.70;5.10;;;;;;;;;;5093420;28;20418;-57
2021/12/29 07:06:45;;;;;;;9.23;5.30;;;;;;;;;;5093193;28;20947;-57
2021/12/29 07:09:11;;;;;;;6.13;5.00;;;;;;;;;;5093206;28;20509;-55
2021/12/29 07:11:37;;;;;;;5.80;5.30;;;;;;;;;;5093110;28;20410;-56
2021/12/29 07:14:05;;;;;;;6.00;4.83;;;;;;;;;;5093237;28;20832;-59
2021/12/29 07:16:32;;;;;;;4.67;4.37;;;;;;;;;;5092143;28;20414;-53
2021/12/29 07:18:58;;;;;;;5.37;4.83;;;;;;;;;;5092931;28;20429;-57
2021/12/29 07:21:24;;;;;;;5.73;5.10;;;;;;;;;;5093027;28;20464;-57
2021/12/29 07:23:53;;;;;;;5.60;5.10;;;;;;;;;;5093299;28;20442;-61
2021/12/29 07:26:19;;;;;;;7.17;5.67;;;;;;;;;;5092775;28;20882;-59
2021/12/29 07:28:45;;;;;;;5.47;5.00;;;;;;;;;;5091661;28;20763;-57
2021/12/29 07:31:11;;;;;;;6.60;5.70;;;;;;;;;;5092625;28;20556;-56
2021/12/29 07:33:38;;;;;;;6.20;5.73;;;;;;;;;;5092697;28;20493;-56
2021/12/29 07:36:04;;;;;;;6.83;6.23;;;;;;;;;;5092412;28;20402;-59
2021/12/29 07:38:30;;;;;;;6.40;5.83;;;;;;;;;;5092670;28;20413;-57
2021/12/29 07:40:56;;;;;;;6.40;5.90;;;;;;;;;;5092691;28;20497;-57
2021/12/29 07:43:22;;;;;;;9.07;5.80;;;;;;;;;;5093560;28;20433;-61
2021/12/29 07:45:50;;;;;;;6.13;5.63;;;;;;;;;;5093164;28;20775;-56
2021/12/29 07:48:17;;;;;;;8.90;5.53;;;;;;;;;;5092049;28;20413;-53
2021/12/29 07:50:43;;;;;;;6.77;6.07;;;;;;;;;;5093185;28;20482;-54
2021/12/29 07:53:09;;;;;;;6.10;5.53;;;;;;;;;;5093064;28;20406;-56
2021/12/29 07:55:35;;;;;;;7.83;6.20;;;;;;;;;;5093156;28;20770;-57
2021/12/29 07:58:01;;;;;;;7.83;6.93;;;;;;;;;;5092984;28;20800;-54
2021/12/29 08:00:27;;;;;;;6.80;6.20;;;;;;;;;;5093060;28;20446;-55
2021/12/29 08:02:54;;;;;;;7.73;7.00;;;;;;;;;;5093130;28;20402;-62
2021/12/29 08:05:22;;;;;;;11.97;7.00;;;;;;;;;;5092886;28;20452;-58
2021/12/29 08:07:48;;;;;;;7.83;6.80;;;;;;;;;;5093042;28;20409;-55
2021/12/29 08:10:14;;;;;;;8.57;6.53;;;;;;;;;;5091304;28;20953;-57
2021/12/29 08:12:41;;;;;;;9.50;7.00;;;;;;;;;;5092907;28;20970;-55
2021/12/29 08:15:07;;;;;;;9.40;6.93;;;;;;;;;;5092929;28;20423;-55
2021/12/29 08:17:34;;;;;;;10.03;7.70;;;;;;;;;;5093018;28;20420;-56
2021/12/29 08:20:00;;;;;;;9.60;7.17;;;;;;;;;;5091218;28;20826;-54
2021/12/29 08:22:27;;;;;;;9.47;7.87;;;;;;;;;;5092664;28;20433;-53
2021/12/29 08:24:53;;;;;;;7.93;7.13;;;;;;;;;;5092802;28;20417;-54
2021/12/29 08:27:19;;;;;;;10.80;7.20;;;;;;;;;;5092782;28;20402;-53
2021/12/29 08:29:45;;;;;;;10.33;7.43;;;;;;;;;;5092550;28;20461;-56
2021/12/29 08:32:11;;;;;;;8.90;7.00;;;;;;;;;;5092237;28;20877;-53
2021/12/29 08:34:37;;;;;;;9.57;7.83;;;;;;;;;;5092209;28;20418;-60
2021/12/29 08:37:03;;;;;;;9.67;7.77;;;;;;;;;;5092494;28;20406;-54
2021/12/29 08:39:29;;;;;;;7.60;6.90;;;;;;;;;;5092412;28;20409;-56
2021/12/29 08:41:55;;;;;;;8.83;7.00;;;;;;;;;;5092398;28;20401;-58
2021/12/29 08:44:21;;;;;;;8.00;7.20;;;;;;;;;;5092358;28;20783;-55
2021/12/29 08:46:47;;;;;;;8.90;7.23;;;;;;;;;;5092135;28;20401;-62
2021/12/29 08:49:14;;;;;;;8.13;7.23;;;;;;;;;;5092202;28;20414;-57
2021/12/29 08:51:41;;;;;;;7.50;6.80;;;;;;;;;;5092270;28;20449;-55
2021/12/29 08:54:07;;;;;;;7.77;7.07;;;;;;;;;;5091764;28;20526;-54
2021/12/29 08:56:33;;;;;;;13.60;7.90;;;;;;;;;;5092137;28;20440;-55
2021/12/29 08:58:59;;;;;;;8.47;7.43;;;;;;;;;;5092060;28;20401;-55
2021/12/29 09:01:25;;;;;;;9.93;7.80;;;;;;;;;;5092369;28;20762;-56
2021/12/29 09:03:52;;;;;;;8.40;7.40;;;;;;;;;;5090823;28;20855;-56
2021/12/29 09:06:18;;;;;;;8.60;7.73;;;;;;;;;;5092247;28;20762;-55
2021/12/29 09:08:45;;;;;;;8.60;7.73;;;;;;;;;;5092078;28;20929;-54
2021/12/29 09:11:11;;;;;;;8.20;7.50;;;;;;;;;;5091857;28;20887;-54
2021/12/29 09:13:37;;;;;;;8.60;7.70;;;;;;;;;;5091958;28;20488;-57
2021/12/29 09:16:04;;;;;;;8.97;7.93;;;;;;;;;;5091986;28;20885;-57
2021/12/29 09:18:31;;;;;;;10.87;7.80;;;;;;;;;;5091892;28;20412;-62
2021/12/29 09:21:05;;;;;;;8.17;7.30;;;;;;;;;;5091646;28;20977;-56
2021/12/29 09:23:31;;;;;;;12.93;8.23;;;;;;;;;;5091619;28;20406;-56
2021/12/29 09:25:57;;;;;;;8.50;7.50;;;;;;;;;;5091990;28;20482;-61
2021/12/29 09:28:23;;;;;;;11.00;8.37;;;;;;;;;;5091773;28;20412;-55
2021/12/29 09:30:50;;;;;;;8.90;7.13;;;;;;;;;;5091559;28;20530;-62
2021/12/29 09:33:17;;;;;;;9.37;8.37;;;;;;;;;;5091782;28;20410;-63
2021/12/29 09:35:43;;;;;;;8.33;7.53;;;;;;;;;;5091536;28;20457;-60
2021/12/29 09:38:10;;;;;;;10.53;8.90;;;;;;;;;;5090339;28;20409;-60
2021/12/29 09:40:38;;;;;;;11.83;8.40;;;;;;;;;;5091782;28;20939;-66
2021/12/29 09:43:06;;;;;;;9.13;8.13;;;;;;;;;;5089943;28;20421;-57
2021/12/29 09:45:32;;;;;;;12.53;8.67;;;;;;;;;;5091844;28;20417;-58
2021/12/29 09:47:58;;;;;;;10.60;8.40;;;;;;;;;;5091427;28;20394;-65
2021/12/29 09:50:25;;;;;;;9.57;8.67;;;;;;;;;;5090339;28;21044;-58
2021/12/29 09:52:51;;;;;;;9.83;8.50;;;;;;;;;;5091477;28;20762;-59
2021/12/29 09:55:19;;;;;;;10.93;8.70;;;;;;;;;;5091046;28;20418;-58
2021/12/29 09:57:46;;;;;;;16.43;8.77;;;;;;;;;;5091307;28;20405;-63
2021/12/29 10:00:24;;;;;;;9.70;8.03;;;;;;;;;;5089690;28;20418;-64
2021/12/29 10:02:50;;;;;;;10.07;8.70;;;;;;;;;;5091050;28;20414;-63
2021/12/29 10:05:16;;;;;;;10.57;9.27;;;;;;;;;;5092946;28;20442;-66
2021/12/29 10:07:42;;;;;;;10.70;9.30;;;;;;;;;;5095388;28;20405;-59
2021/12/29 10:10:18;;;;;;;10.40;8.50;;;;;;;;;;5095274;28;20564;-55
2021/12/29 10:12:45;;;;;;;11.17;8.90;;;;;;;;;;5095245;28;20412;-60
2021/12/29 10:15:11;;;;;;;11.93;9.57;;;;;;;;;;5095304;28;20944;-59
2021/12/29 10:17:37;;;;;;;11.30;9.30;;;;;;;;;;5094008;28;20429;-58
2021/12/29 10:20:05;;;;;;;9.80;8.80;;;;;;;;;;5081085;28;20545;-57
2021/12/29 10:22:31;;;;;;;14.47;10.20;;;;;;;;;;5088513;28;20976;-64
2021/12/29 10:25:06;;;;;;;12.63;9.97;;;;;;;;;;5074567;28;20413;-55
2021/12/29 10:27:33;;;;;;;11.20;8.63;;;;;;;;;;5085116;28;20480;-56
2021/12/29 10:29:59;;;;;;;10.20;9.13;;;;;;;;;;5093215;28;21031;-59
2021/12/29 10:32:25;;;;;;;10.30;9.10;;;;;;;;;;5094630;28;20420;-63
2021/12/29 10:34:52;;;;;;;9.10;8.20;;;;;;;;;;5093744;28;20397;-63
2021/12/29 10:37:18;;;;;;;15.43;11.23;;;;;;;;;;5074049;28;20449;-60
2021/12/29 10:39:46;;;;;;;9.83;8.80;;;;;;;;;;5074231;28;20545;-55
2021/12/29 10:42:16;;;;;;;10.80;9.40;;;;;;;;;;5073856;28;20429;-57
2021/12/29 10:44:44;;;;;;;12.67;9.70;;;;;;;;;;5074371;28;20732;-53
2021/12/29 10:47:14;;;;;;;15.73;9.40;;;;;;;;;;5073971;28;20411;-54
2021/12/29 10:49:55;;;;;;;10.90;8.80;;;;;;;;;;5073859;28;21059;-56
2021/12/29 10:52:30;;;;;;;11.43;8.57;;;;;;;;;;5078284;28;20417;-56
2021/12/29 10:54:56;;;;;;;10.50;9.13;;;;;;;;;;5093367;28;20424;-54
2021/12/29 10:57:22;;;;;;;10.80;9.20;;;;;;;;;;5094209;28;20444;-52
2021/12/29 10:59:55;;;;;;;10.13;8.60;;;;;;;;;;5093958;28;20570;-52
2021/12/29 11:02:25;;;;;;;12.43;9.10;;;;;;;;;;5094235;28;20715;-51
2021/12/29 11:04:55;;;;;;;9.43;7.80;;;;;;;;;;5094359;28;20920;-53
2021/12/29 11:07:25;;;;;;;9.30;8.50;;;;;;;;;;5094089;28;20406;-56
2021/12/29 11:09:51;;;;;;;10.70;8.60;;;;;;;;;;5092688;28;20985;-59
2021/12/29 11:12:18;;;;;;;10.83;7.73;;;;;;;;;;5093879;28;20502;-59
2021/12/29 11:14:44;;;;;;;9.87;8.33;;;;;;;;;;5079526;28;20457;-54
2021/12/29 11:17:12;;;;;;;9.60;8.03;;;;;;;;;;5068012;28;20837;-58
2021/12/29 11:19:39;;;;;;;10.20;8.20;;;;;;;;;;5073063;28;20467;-54
2021/12/29 11:22:14;;;;;;;11.37;9.07;;;;;;;;;;5065814;28;20438;-57
2021/12/29 11:24:41;;;;;;;11.60;9.50;;;;;;;;;;5073123;28;20526;-53
2021/12/29 11:27:14;;;;;;;12.10;10.20;;;;;;;;;;5081096;28;20440;-52
2021/12/29 11:29:51;;;;;;;11.63;9.30;;;;;;;;;;5082541;28;20418;-53
2021/12/29 11:32:20;;;;;;;13.00;10.40;;;;;;;;;;5075935;28;20910;-56
2021/12/29 11:34:56;;;;;;;11.57;10.03;;;;;;;;;;5077232;28;20455;-53
2021/12/29 11:37:23;;;;;;;14.73;9.90;;;;;;;;;;5073647;28;20417;-54
2021/12/29 11:39:49;;;;;;;11.23;10.03;;;;;;;;;;5073260;28;20911;-55
2021/12/29 11:42:17;;;;;;;11.53;10.07;;;;;;;;;;5073332;28;20422;-55
2021/12/29 11:44:43;;;;;;;11.50;9.77;;;;;;;;;;5073425;28;20426;-58
2021/12/29 11:47:10;;;;;;;13.20;10.87;;;;;;;;;;5073435;28;20403;-59
2021/12/29 11:49:36;;;;;;;11.90;10.40;;;;;;;;;;5072479;28;20446;-55
2021/12/29 11:52:17;;;;;;;12.43;10.67;;;;;;;;;;5072256;28;20434;-52
2021/12/29 11:54:50;;;;;;;12.60;10.60;;;;;;;;;;5072327;28;20411;-56
2021/12/29 11:57:20;;;;;;;12.67;9.70;;;;;;;;;;5072150;28;20835;-57
2021/12/29 11:59:46;;;;;;;10.30;9.30;;;;;;;;;;5072098;28;20737;-55
2021/12/29 12:02:23;;;;;;;9.77;8.87;;;;;;;;;;5072063;28;20953;-57
2021/12/29 12:04:59;;;;;;;10.40;9.27;;;;;;;;;;5087422;28;20946;-60
2021/12/29 12:07:25;;;;;;;9.33;8.43;;;;;;;;;;5072314;28;20566;-55
2021/12/29 12:09:51;;;;;;;9.43;8.50;;;;;;;;;;5071885;28;20667;-55
2021/12/29 12:12:17;;;;;;;9.73;8.73;;;;;;;;;;5087262;28;20426;-61
2021/12/29 12:14:45;;;;;;;9.77;8.77;;;;;;;;;;5072169;28;20839;-54
2021/12/29 12:17:12;;;;;;;9.03;8.00;;;;;;;;;;5071509;28;20552;-57
2021/12/29 12:19:39;;;;;;;10.10;7.60;;;;;;;;;;5071277;28;20923;-57
2021/12/29 12:22:05;;;;;;;10.10;8.47;;;;;;;;;;5071517;28;20414;-56
2021/12/29 12:24:32;;;;;;;8.80;7.70;;;;;;;;;;5087029;28;20407;-57
2021/12/29 12:27:01;;;;;;;10.87;7.80;;;;;;;;;;5071494;28;20415;-58
2021/12/29 12:29:28;;;;;;;7.70;7.03;;;;;;;;;;5071931;28;20403;-58
2021/12/29 12:32:13;;;;;;;12.13;7.47;;;;;;;;;;5072486;28;20421;-57
2021/12/29 12:34:57;;;;;;;9.13;7.70;;;;;;;;;;5072476;28;20417;-59
2021/12/29 12:37:29;;;;;;;7.70;7.10;;;;;;;;;;5072566;28;20410;-52
2021/12/29 12:40:00;;;;;;;6.47;5.87;;;;;;;;;;5072572;28;20819;-56
2021/12/29 12:42:29;;;;;;;6.90;6.40;;;;;;;;;;5072203;28;20415;-53
2021/12/29 12:44:55;;;;;;;6.50;6.10;;;;;;;;;;5072391;28;20891;-61
2021/12/29 12:47:21;;;;;;;6.70;6.10;;;;;;;;;;5072118;28;20407;-55
2021/12/29 12:49:51;;;;;;;7.07;6.40;;;;;;;;;;5072072;28;20459;-55
2021/12/29 12:52:18;;;;;;;5.80;5.50;;;;;;;;;;5072127;28;20505;-56
2021/12/29 12:54:52;;;;;;;6.90;6.40;;;;;;;;;;5072349;28;20414;-56
2021/12/29 12:57:29;;;;;;;6.47;6.07;;;;;;;;;;5071827;28;20406;-64
2021/12/29 13:00:05;;;;;;;6.67;6.17;;;;;;;;;;5072007;28;20407;-55
2021/12/29 13:02:35;;;;;;;7.53;6.83;;;;;;;;;;5071733;28;20442;-55
2021/12/29 13:05:01;;;;;;;5.77;5.47;;;;;;;;;;5071884;28;20460;-54
2021/12/29 13:07:28;;;;;;;8.10;6.00;;;;;;;;;;5071989;28;20895;-54
2021/12/29 13:09:54;;;;;;;6.83;6.30;;;;;;;;;;5070872;28;20472;-54
2021/12/29 13:12:29;;;;;;;6.20;5.80;;;;;;;;;;5081276;28;20535;-56
2021/12/29 13:15:16;;;;;;;5.70;5.30;;;;;;;;;;5081794;28;20942;-57
2021/12/29 13:17:43;;;;;;;6.07;5.67;;;;;;;;;;5071465;28;20395;-66
2021/12/29 13:20:10;;;;;;;6.20;5.80;;;;;;;;;;5088599;28;20498;-55
2021/12/29 13:22:36;;;;;;;5.60;5.20;;;;;;;;;;5081050;28;20407;-55
2021/12/29 13:25:13;;;;;;;6.10;5.60;;;;;;;;;;5068118;28;20437;-58
2021/12/29 13:27:41;;;;;;;5.37;5.07;;;;;;;;;;5082554;28;20405;-56
2021/12/29 13:30:10;;;;;;;5.87;5.40;;;;;;;;;;5078777;28;20442;-58
2021/12/29 13:32:47;;;;;;;5.37;4.87;;;;;;;;;;5071436;28;20414;-58
2021/12/29 13:35:13;;;;;;;5.83;5.53;;;;;;;;;;5071505;28;20413;-59
2021/12/29 13:37:39;;;;;;;5.77;5.30;;;;;;;;;;5071253;28;20406;-61
2021/12/29 13:40:09;;;;;;;6.17;5.67;;;;;;;;;;5073296;28;20414;-57
2021/12/29 13:42:42;;;;;;;5.80;5.40;;;;;;;;;;5072877;28;20527;-60
2021/12/29 13:45:19;;;;;;;6.20;5.70;;;;;;;;;;5065482;28;20453;-60
2021/12/29 13:47:48;;;;;;;5.53;5.07;;;;;;;;;;5054983;28;20792;-58
2021/12/29 13:50:14;;;;;;;5.40;5.10;;;;;;;;;;5070640;28;20467;-53
2021/12/29 13:52:40;;;;;;;5.00;4.70;;;;;;;;;;5055125;28;20407;-60
2021/12/29 13:55:06;;;;;;;5.40;5.00;;;;;;;;;;5055425;28;20411;-52
2021/12/29 13:57:33;;;;;;;5.37;4.87;;;;;;;;;;5054999;28;20461;-60
2021/12/29 14:00:00;;;;;;;4.93;4.63;;;;;;;;;;5072805;28;20484;-54
2021/12/29 14:02:26;;;;;;;4.83;4.47;;;;;;;;;;5053420;28;20419;-53
2021/12/29 14:04:52;;;;;;;4.67;4.47;;;;;;;;;;5054178;28;20407;-63
2021/12/29 14:07:20;;;;;;;5.00;4.80;;;;;;;;;;5053672;28;20443;-61
2021/12/29 14:09:47;;;;;;;5.10;4.80;;;;;;;;;;5053442;28;20438;-56
2021/12/29 14:12:13;;;;;;;4.83;4.43;;;;;;;;;;5055077;28;20804;-61
2021/12/29 14:14:39;;;;;;;4.90;4.60;;;;;;;;;;5054589;28;20415;-63
2021/12/29 14:17:06;;;;;;;4.93;4.63;;;;;;;;;;5054461;28;20424;-62
2021/12/29 14:19:33;;;;;;;5.00;4.70;;;;;;;;;;5082212;28;20459;-59
2021/12/29 14:21:59;;;;;;;5.23;4.93;;;;;;;;;;5083216;28;20770;-55
2021/12/29 14:24:26;;;;;;;4.53;4.17;;;;;;;;;;5094707;28;20406;-62
2021/12/29 14:26:56;;;;;;;5.37;5.07;;;;;;;;;;5081100;28;20434;-66
2021/12/29 14:29:29;;;;;;;3.53;3.43;;;;;;;;;;5090121;28;20399;-55
2021/12/29 14:31:55;;;;;;;4.40;4.20;;;;;;;;;;5074227;28;20421;-55
2021/12/29 14:34:23;;;;;;;4.30;4.10;;;;;;;;;;5072271;28;20771;-52
2021/12/29 14:36:51;;;;;;;5.70;4.40;;;;;;;;;;5072884;28;20421;-59
2021/12/29 14:39:22;;;;;;;3.93;3.83;;;;;;;;;;5072941;28;20927;-52
2021/12/29 14:42:00;;;;;;;11.67;5.00;;;;;;;;;;5075852;28;20407;-54
2021/12/29 14:44:26;;;;;;;5.00;4.70;;;;;;;;;;5089606;28;20763;-52
2021/12/29 14:46:57;;;;;;;4.40;4.20;;;;;;;;;;5072685;28;20407;-53
2021/12/29 14:49:27;;;;;;;4.30;4.10;;;;;;;;;;5074138;28;20406;-54